Aeroporto :
LOGIN :

Iscrizione | Disclaimer

   EN    FR    IT 

 










Sommario :    VFR   VFR Marginale   IFR   IFR Intensivo   IFR Molto Intensivo
Visibilità : 
Base nubi : 
>= 8 km
>= 3000ft
5 / 8 km
1000 / 3000 ft
1500m / 5 km
500 / 1000 ft
800 / 1500m
200 / 500 ft
< 800m
< 200 ft
Simboli :   Temporali  Nebbia  Neve Forte  Precipitazioni Forti  Vento > 20 kt
SIGMETs :   Varie  Temporali  Ghiacco  Turbolenza  Onda orograficha  Ceneri Vulcaniche







- Altitudine del aeroporto : 502 ft
- Codice IATA : ORK


EICK - Cork

ULTIMO METAR :
  • 191200Z 23017KT 9999 FEW009 BKN012 BKN030 19/16 Q1003 TEMPO 4000 BKN007

METARs OBSOLETI :
  • 191130Z 23015KT 9999 -RADZ SCT004 BKN007 18/16 Q1002 TEMPO 4000
  • 191100Z 21013KT 6000 -RADZ SCT004 BKN006 17/16 Q1002 TEMPO 4000
  • 191030Z 20014KT 6000 -RADZ BKN006 BKN014 18/16 Q1002 TEMPO 4000
  • 191000Z 21015KT 9999 BKN008 BKN030 18/17 Q1003 NOSIG

TAF TAF EICK
Valido dal 19 a 12 ore il 20 a 12 ore UTC


191100Z 1912/2012 22013KT 9999 SCT006 BKN015
TEMPO 1912/1919 4000 -SHRA BKN007 SCT018CB
PROB40
TEMPO 1912/1918 2000 -RADZ BR BKN003
TEMPO 1914/1919 21016G27KT
BECMG 1919/1921 26016G27KT SCT010 BKN020
TEMPO 1919/2006 BKN010
BECMG 1921/1923 26013KT
BECMG 2000/2003 29013KT
BECMG 2009/2011 31007KT
Nessun NOTAM noto per questo aeroporto.
1 SIGMET conosciuto per la FIR Shannon (EISN) :
 
Cancellazione del SIGMET 02
EISN SIGMET 03 190821/190930 EINN
EISN SHANNON FIR CNL SIGMET 02 190530/190930=



MetMap, La meteo Aeronautica in un colpo d'occhio ! - Copyright ORBIFLY Dicembre 2007 - Disclaimer

ORBIFLY MET'MAP TEAM :

Programmazione e sviluppo : Alexandra Zaïnal
Concezione e sviluppo : Baudouin d'Aumeries
Co-Programmazione e sviluppo : Marc-Olivier Méhu
Supporto tecnico e logistico : Manuel Goepfert
Aiuto per la traduzione : Arnaldo La Scala

Contatto : metmap@orbifly.com




FONTI E CREDITI :

   NOAA